createdAt,value
2022-09-09T16:33:16.650Z,24.60
2022-09-09T16:35:45.037Z,23.30
2022-09-09T16:38:13.490Z,23.10
2022-09-09T16:40:42.198Z,22.90
2022-09-09T16:43:12.127Z,22.70
2022-09-09T16:45:44.731Z,22.70
2022-09-09T16:48:12.880Z,22.60
2022-09-09T16:50:42.853Z,22.50
2022-09-09T16:53:10.849Z,22.40
2022-09-09T16:55:43.386Z,22.30
2022-09-09T16:58:13.256Z,22.10
2022-09-09T17:00:41.305Z,22.00
2022-09-09T17:03:13.513Z,21.80
2022-09-09T17:05:43.471Z,21.80
2022-09-09T17:08:11.420Z,21.70
2022-09-09T17:10:43.644Z,21.70
2022-09-09T17:13:12.521Z,21.50
2022-09-09T17:15:45.049Z,21.20
2022-09-09T17:18:14.459Z,21.10
2022-09-09T17:20:47.053Z,20.70
2022-09-09T17:23:16.228Z,20.50
2022-09-09T17:25:46.803Z,20.50
2022-09-09T17:28:16.139Z,20.40
2022-09-09T17:30:44.269Z,20.40
2022-09-09T17:33:12.482Z,20.30
2022-09-09T17:35:40.615Z,20.20
2022-09-09T17:38:10.063Z,20.20
2022-09-09T17:40:38.147Z,20.10
2022-09-09T17:43:06.285Z,20.10
2022-09-09T17:45:34.307Z,20.00
2022-09-09T17:48:03.613Z,19.90
2022-09-09T17:50:33.069Z,19.70
2022-09-09T17:53:01.088Z,19.60
2022-09-09T17:55:30.740Z,19.50
2022-09-09T17:58:00.085Z,19.30
2022-09-09T18:00:31.268Z,19.30
2022-09-09T18:02:59.769Z,19.20
2022-09-09T18:05:27.796Z,19.10
2022-09-09T18:07:56.119Z,18.90
2022-09-09T18:10:24.176Z,18.90
2022-09-09T18:12:53.520Z,18.70
2022-09-09T18:15:39.130Z,18.60
2022-09-09T18:18:10.566Z,18.60
2022-09-09T18:20:38.515Z,18.50
2022-09-09T18:23:06.502Z,18.50
2022-09-09T18:25:39.536Z,18.50
2022-09-09T18:28:09.582Z,18.40
2022-09-09T18:30:41.018Z,18.40
2022-09-09T18:33:09.078Z,18.30
2022-09-09T18:35:38.290Z,18.20
2022-09-09T18:38:06.384Z,18.10
2022-09-09T18:40:34.515Z,18.00
2022-09-09T18:43:03.007Z,18.00
2022-09-09T18:45:33.017Z,17.90
2022-09-09T18:48:01.469Z,17.90
2022-09-09T18:50:29.466Z,18.00
2022-09-09T18:52:57.495Z,18.00
2022-09-09T18:55:25.864Z,17.90
2022-09-09T18:57:55.073Z,17.90
2022-09-09T19:00:23.084Z,17.90
2022-09-09T19:02:53.159Z,17.80
2022-09-09T19:05:21.360Z,17.80
2022-09-09T19:07:49.403Z,17.80
2022-09-09T19:10:17.624Z,17.80
2022-09-09T19:12:46.029Z,17.70
2022-09-09T19:15:15.318Z,17.70
2022-09-09T19:17:43.318Z,17.60
2022-09-09T19:20:13.046Z,17.60
2022-09-09T19:22:41.437Z,17.60
2022-09-09T19:25:09.565Z,17.60
2022-09-09T19:27:37.535Z,17.60
2022-09-09T19:30:06.497Z,17.60
2022-09-09T19:32:52.603Z,17.50
2022-09-09T19:35:22.550Z,17.50
2022-09-09T19:37:50.604Z,17.40
2022-09-09T19:40:22.030Z,17.40
2022-09-09T19:42:53.909Z,17.40
2022-09-09T19:45:22.408Z,17.40
2022-09-09T19:47:50.350Z,17.30
2022-09-09T19:50:19.358Z,17.30
2022-09-09T19:52:48.773Z,17.30
2022-09-09T19:55:17.081Z,17.30
2022-09-09T19:57:45.054Z,17.20
2022-09-09T20:00:14.111Z,17.20
2022-09-09T20:02:58.077Z,17.10
2022-09-09T20:05:33.206Z,17.10
2022-09-09T20:08:02.798Z,17.10
2022-09-09T20:10:31.836Z,17.10
2022-09-09T20:13:00.729Z,17.10
2022-09-09T20:15:29.104Z,17.10
2022-09-09T20:17:57.379Z,17.10
2022-09-09T20:20:25.491Z,17.10
2022-09-09T20:22:54.398Z,17.10
2022-09-09T20:25:24.812Z,17.00
2022-09-09T20:27:52.754Z,17.00
2022-09-09T20:30:21.015Z,16.90
2022-09-09T20:32:49.009Z,16.90
2022-09-09T20:35:17.060Z,17.00
2022-09-09T20:37:45.098Z,16.90
2022-09-09T20:40:13.237Z,16.90
2022-09-09T20:42:43.307Z,16.80
2022-09-09T20:45:16.105Z,16.80
2022-09-09T20:47:44.062Z,16.70
2022-09-09T20:50:12.065Z,16.70
2022-09-09T20:52:39.980Z,16.70
2022-09-09T20:55:08.931Z,16.60
2022-09-09T20:57:37.713Z,16.60
2022-09-09T21:00:08.604Z,16.60
2022-09-09T21:02:36.601Z,16.50
2022-09-09T21:05:04.880Z,16.50
2022-09-09T21:07:32.884Z,16.50
2022-09-09T21:10:02.109Z,16.50
2022-09-09T21:12:30.296Z,16.50
2022-09-09T21:14:58.328Z,16.50
2022-09-09T21:17:27.922Z,16.50
2022-09-09T21:19:57.395Z,16.40
2022-09-09T21:22:25.503Z,16.40
2022-09-09T21:24:53.843Z,16.40
2022-09-09T21:27:23.228Z,16.30
2022-09-09T21:29:51.186Z,16.30
2022-09-09T21:32:19.203Z,16.30
2022-09-09T21:34:48.561Z,16.30
2022-09-09T21:37:16.539Z,16.20
2022-09-09T21:39:44.558Z,16.30
2022-09-09T21:42:14.650Z,16.30
2022-09-09T21:44:42.593Z,16.20
2022-09-09T21:47:10.715Z,16.10
2022-09-09T21:49:38.638Z,16.00
2022-09-09T21:52:07.935Z,16.00
2022-09-09T21:54:40.170Z,16.00
2022-09-09T21:57:08.100Z,16.00
2022-09-09T21:59:36.155Z,15.90
2022-09-09T22:02:04.255Z,15.90
2022-09-09T22:04:32.335Z,15.90
2022-09-09T22:07:00.302Z,15.90
2022-09-09T22:09:29.597Z,15.90
2022-09-09T22:11:57.956Z,15.90
2022-09-09T22:14:26.357Z,15.80
2022-09-09T22:16:55.037Z,15.80
2022-09-09T22:19:23.046Z,15.80
2022-09-09T22:21:51.021Z,15.90
2022-09-09T22:24:18.998Z,15.90
2022-09-09T22:26:48.300Z,15.90
2022-09-09T22:29:17.499Z,15.90
2022-09-09T22:31:45.527Z,15.80
2022-09-09T22:34:13.514Z,15.90
2022-09-09T22:36:42.135Z,15.90
2022-09-09T22:39:10.150Z,15.90
2022-09-09T22:41:38.099Z,15.80
2022-09-09T22:44:10.205Z,15.80
2022-09-09T22:46:39.756Z,15.80
2022-09-09T22:49:08.000Z,15.80
2022-09-09T22:51:36.050Z,15.80
2022-09-09T22:54:05.588Z,15.70
2022-09-09T22:56:33.809Z,15.70
2022-09-09T22:59:02.016Z,15.70
2022-09-09T23:01:31.855Z,15.70
2022-09-09T23:04:01.571Z,15.70
2022-09-09T23:06:31.682Z,15.70
2022-09-09T23:09:02.035Z,15.60
2022-09-09T23:11:32.092Z,15.70
2022-09-09T23:14:01.772Z,15.60
2022-09-09T23:16:33.807Z,15.60
2022-09-09T23:19:02.139Z,15.60
2022-09-09T23:21:31.948Z,15.60
2022-09-09T23:24:00.723Z,15.60
2022-09-09T23:26:29.688Z,15.60
2022-09-09T23:29:00.836Z,15.60
2022-09-09T23:31:32.935Z,15.60
2022-09-09T23:34:02.120Z,15.60
2022-09-09T23:36:30.845Z,15.60
2022-09-09T23:38:59.393Z,15.70
2022-09-09T23:41:28.101Z,15.60
2022-09-09T23:43:56.983Z,15.60
2022-09-09T23:46:28.424Z,15.60
2022-09-09T23:49:00.046Z,15.60
2022-09-09T23:51:30.466Z,15.60
2022-09-09T23:54:01.916Z,15.60
2022-09-09T23:56:32.828Z,15.60
2022-09-09T23:59:01.517Z,15.60
